Time;durP1;ratioP1;P1;durP2;ratioP2;P2;SDS_P1;SDS_P2;PMS_P1;PMS_P2;Temp;Humidity;BMP_temperature;BMP_pressure;BME280_temperature;BME280_humidity;BME280_pressure;Samples;Min_cycle;Max_cycle;Signal;HPM_P1;HPM_P2
2022/03/22 00:02:14;;;;;;;21.17;13.83;;;;;;;;;;5033603;28;20402;-76
2022/03/22 00:04:40;;;;;;;22.33;15.10;;;;;;;;;;5033264;28;20785;-75
2022/03/22 00:07:07;;;;;;;18.10;13.23;;;;;;;;;;5033265;28;20405;-75
2022/03/22 00:09:33;;;;;;;16.23;12.60;;;;;;;;;;5032119;28;20841;-77
2022/03/22 00:11:59;;;;;;;22.90;15.00;;;;;;;;;;5033670;28;20414;-75
2022/03/22 00:14:25;;;;;;;20.07;13.00;;;;;;;;;;5032508;28;20454;-76
2022/03/22 00:16:53;;;;;;;21.33;12.63;;;;;;;;;;5033580;28;20903;-76
2022/03/22 00:19:19;;;;;;;17.27;12.07;;;;;;;;;;5033450;28;20552;-76
2022/03/22 00:21:46;;;;;;;16.97;12.10;;;;;;;;;;5033049;28;20410;-76
2022/03/22 00:24:13;;;;;;;20.67;13.23;;;;;;;;;;5033039;28;20422;-77
2022/03/22 00:26:39;;;;;;;20.63;14.60;;;;;;;;;;5033050;28;20411;-77
2022/03/22 00:29:05;;;;;;;20.20;13.40;;;;;;;;;;5032710;28;20442;-77
2022/03/22 00:31:31;;;;;;;20.40;12.97;;;;;;;;;;5032873;28;20406;-76
2022/03/22 00:33:57;;;;;;;19.40;12.33;;;;;;;;;;5032735;28;20418;-76
2022/03/22 00:36:24;;;;;;;22.10;12.90;;;;;;;;;;5032885;28;20453;-76
2022/03/22 00:38:50;;;;;;;22.07;15.00;;;;;;;;;;5032102;28;20402;-77
2022/03/22 00:41:19;;;;;;;18.03;12.67;;;;;;;;;;5033131;28;20509;-77
2022/03/22 00:43:46;;;;;;;20.90;12.40;;;;;;;;;;5031620;28;20485;-77
2022/03/22 00:46:12;;;;;;;19.80;12.97;;;;;;;;;;5032839;28;20417;-77
2022/03/22 00:48:40;;;;;;;18.10;13.13;;;;;;;;;;5033061;28;20448;-77
2022/03/22 00:51:06;;;;;;;23.33;12.70;;;;;;;;;;5032805;28;20430;-77
2022/03/22 00:53:32;;;;;;;20.20;12.47;;;;;;;;;;5032878;28;20935;-76
2022/03/22 00:56:01;;;;;;;19.17;12.13;;;;;;;;;;5031635;28;20407;-76
2022/03/22 00:58:27;;;;;;;18.67;12.40;;;;;;;;;;5032994;28;20493;-75
2022/03/22 01:00:53;;;;;;;19.70;13.57;;;;;;;;;;5033253;28;20403;-77
2022/03/22 01:03:19;;;;;;;21.60;12.97;;;;;;;;;;5033034;28;20454;-77
2022/03/22 01:05:45;;;;;;;19.53;13.53;;;;;;;;;;5032690;28;20398;-77
2022/03/22 01:08:14;;;;;;;22.67;13.47;;;;;;;;;;5032703;28;20477;-77
2022/03/22 01:10:41;;;;;;;16.70;12.03;;;;;;;;;;5032664;28;20426;-77
2022/03/22 01:13:08;;;;;;;18.60;13.40;;;;;;;;;;5031635;28;21003;-76
2022/03/22 01:15:35;;;;;;;17.73;12.20;;;;;;;;;;5032546;28;20402;-77
2022/03/22 01:18:06;;;;;;;18.93;11.97;;;;;;;;;;5032581;28;20407;-77
2022/03/22 01:20:38;;;;;;;18.83;11.40;;;;;;;;;;5032502;28;20414;-77
2022/03/22 01:23:05;;;;;;;18.27;12.73;;;;;;;;;;5032478;28;20422;-77
2022/03/22 01:25:34;;;;;;;22.20;13.23;;;;;;;;;;5032841;28;20419;-77
2022/03/22 01:28:02;;;;;;;19.40;12.37;;;;;;;;;;5035450;28;20410;-77
2022/03/22 01:30:29;;;;;;;20.40;12.77;;;;;;;;;;5036154;28;20489;-77
2022/03/22 01:32:55;;;;;;;14.90;11.73;;;;;;;;;;5034697;28;20425;-77
2022/03/22 01:35:22;;;;;;;17.43;11.97;;;;;;;;;;5036297;28;20490;-77
2022/03/22 01:37:48;;;;;;;16.70;10.70;;;;;;;;;;5035882;28;20406;-76
2022/03/22 01:40:16;;;;;;;20.53;12.87;;;;;;;;;;5036071;28;20407;-76
2022/03/22 01:42:42;;;;;;;16.70;11.20;;;;;;;;;;5034517;28;20442;-77
2022/03/22 01:45:09;;;;;;;16.40;12.43;;;;;;;;;;5035542;28;20442;-77
2022/03/22 01:47:36;;;;;;;17.13;11.87;;;;;;;;;;5036014;28;20482;-76
2022/03/22 01:50:02;;;;;;;17.70;12.50;;;;;;;;;;5035597;28;20462;-76
2022/03/22 01:52:29;;;;;;;17.77;12.10;;;;;;;;;;5035724;28;20493;-76
2022/03/22 01:54:55;;;;;;;16.27;11.63;;;;;;;;;;5035542;28;20426;-76
2022/03/22 01:57:22;;;;;;;17.17;11.57;;;;;;;;;;5036007;28;20767;-76
2022/03/22 01:59:49;;;;;;;23.33;11.90;;;;;;;;;;5035803;28;20444;-76
2022/03/22 02:07:45;;;;;;;16.27;11.90;;;;;;;;;;5035697;28;20398;-77
2022/03/22 02:10:12;;;;;;;19.00;11.40;;;;;;;;;;5035243;28;20843;-76
2022/03/22 02:12:38;;;;;;;21.77;13.40;;;;;;;;;;5035293;28;20921;-76
2022/03/22 02:15:05;;;;;;;16.63;11.47;;;;;;;;;;5035160;28;20418;-77
2022/03/22 02:17:31;;;;;;;16.63;12.03;;;;;;;;;;5035361;28;20407;-76
2022/03/22 02:19:58;;;;;;;15.70;11.23;;;;;;;;;;5035072;28;20414;-76
2022/03/22 02:22:28;;;;;;;20.60;11.80;;;;;;;;;;5035386;28;20473;-76
2022/03/22 02:24:54;;;;;;;16.90;11.77;;;;;;;;;;5035136;28;20564;-76
2022/03/22 02:27:21;;;;;;;24.23;12.17;;;;;;;;;;5035367;28;20414;-76
2022/03/22 02:29:47;;;;;;;14.47;10.20;;;;;;;;;;5047664;28;20822;-76
2022/03/22 02:32:13;;;;;;;17.80;10.00;;;;;;;;;;5026932;28;20554;-77
2022/03/22 02:34:40;;;;;;;18.93;11.63;;;;;;;;;;5024897;28;20433;-76
2022/03/22 02:37:06;;;;;;;15.40;10.07;;;;;;;;;;5035316;28;20403;-76
2022/03/22 02:39:34;;;;;;;15.07;10.50;;;;;;;;;;5033926;28;20777;-76
2022/03/22 02:42:00;;;;;;;22.50;12.17;;;;;;;;;;5034851;28;20405;-76
2022/03/22 02:44:26;;;;;;;17.43;11.70;;;;;;;;;;5033280;28;20542;-76
2022/03/22 02:46:53;;;;;;;16.73;10.40;;;;;;;;;;5034689;28;20489;-76
2022/03/22 02:49:19;;;;;;;14.33;10.17;;;;;;;;;;5034525;28;20492;-76
2022/03/22 02:51:45;;;;;;;15.20;9.53;;;;;;;;;;5034707;28;20437;-76
2022/03/22 02:54:11;;;;;;;23.20;11.80;;;;;;;;;;5034647;28;20426;-76
2022/03/22 02:56:37;;;;;;;15.83;11.70;;;;;;;;;;5034737;28;20498;-76
2022/03/22 02:59:03;;;;;;;15.60;10.47;;;;;;;;;;5033265;28;20513;-77
2022/03/22 03:01:32;;;;;;;21.67;11.87;;;;;;;;;;5034465;28;20465;-76
2022/03/22 03:03:59;;;;;;;12.27;10.23;;;;;;;;;;5034367;28;20899;-76
2022/03/22 03:06:28;;;;;;;17.53;10.43;;;;;;;;;;5034507;28;20410;-75
2022/03/22 03:08:55;;;;;;;20.97;10.50;;;;;;;;;;5034986;28;20454;-76
2022/03/22 03:11:21;;;;;;;13.13;9.73;;;;;;;;;;5034436;28;20417;-76
2022/03/22 03:16:53;;;;;;;12.80;10.80;;;;;;;;;;5012434;28;20462;-76
2022/03/22 03:19:19;;;;;;;15.40;10.13;;;;;;;;;;5012200;28;20407;-76
2022/03/22 03:21:45;;;;;;;14.50;10.00;;;;;;;;;;5022702;28;20962;-76
2022/03/22 03:24:11;;;;;;;13.90;9.40;;;;;;;;;;5034058;28;20429;-76
2022/03/22 03:26:37;;;;;;;15.90;9.93;;;;;;;;;;5034365;28;20481;-76
2022/03/22 03:29:03;;;;;;;13.17;9.43;;;;;;;;;;5033948;28;20445;-76
2022/03/22 03:31:29;;;;;;;17.37;10.70;;;;;;;;;;5034046;28;20395;-76
2022/03/22 03:33:55;;;;;;;13.53;9.43;;;;;;;;;;5032605;28;20438;-76
2022/03/22 03:36:21;;;;;;;19.40;11.87;;;;;;;;;;5034349;28;20399;-76
2022/03/22 03:38:47;;;;;;;12.67;10.20;;;;;;;;;;5034041;28;20485;-76
2022/03/22 03:47:03;;;;;;;18.57;11.60;;;;;;;;;;5033650;28;20487;-76
2022/03/22 03:49:29;;;;;;;15.40;11.27;;;;;;;;;;5033425;28;21004;-76
2022/03/22 03:51:55;;;;;;;15.63;10.20;;;;;;;;;;5033659;28;20406;-76
2022/03/22 03:54:21;;;;;;;15.43;10.73;;;;;;;;;;5033668;28;20418;-76
2022/03/22 03:56:47;;;;;;;18.60;11.30;;;;;;;;;;5033669;28;20401;-76
2022/03/22 03:59:14;;;;;;;17.83;11.80;;;;;;;;;;5033726;28;20410;-76
2022/03/22 04:01:40;;;;;;;13.97;10.80;;;;;;;;;;5032205;28;20410;-76
2022/03/22 04:04:06;;;;;;;17.00;12.60;;;;;;;;;;5027495;28;20450;-76
2022/03/22 04:06:32;;;;;;;16.90;12.77;;;;;;;;;;5033657;28;20473;-76
2022/03/22 04:08:58;;;;;;;18.83;11.70;;;;;;;;;;5034759;28;20450;-75
2022/03/22 04:11:24;;;;;;;15.47;11.00;;;;;;;;;;5041333;28;20411;-76
2022/03/22 04:13:50;;;;;;;18.00;10.60;;;;;;;;;;5034596;28;20836;-76
2022/03/22 04:16:16;;;;;;;17.53;10.67;;;;;;;;;;5033948;28;20414;-76
2022/03/22 04:18:42;;;;;;;17.70;11.40;;;;;;;;;;5033740;28;20414;-76
2022/03/22 04:21:08;;;;;;;16.67;11.80;;;;;;;;;;5033619;28;20425;-76
2022/03/22 04:23:34;;;;;;;16.97;11.63;;;;;;;;;;5033391;28;20793;-75
2022/03/22 04:26:00;;;;;;;20.37;12.07;;;;;;;;;;5033483;28;20915;-76
2022/03/22 04:33:56;;;;;;;16.93;11.20;;;;;;;;;;5033302;28;20429;-76
2022/03/22 04:36:22;;;;;;;14.73;10.60;;;;;;;;;;5033120;28;20391;-76
2022/03/22 04:38:48;;;;;;;19.67;11.60;;;;;;;;;;5033171;28;20437;-75
2022/03/22 04:41:14;;;;;;;22.23;11.13;;;;;;;;;;5031672;28;20544;-76
2022/03/22 04:43:40;;;;;;;17.90;12.10;;;;;;;;;;5032777;28;20441;-76
2022/03/22 04:46:07;;;;;;;16.07;10.90;;;;;;;;;;5032964;28;20398;-76
2022/03/22 04:48:34;;;;;;;16.67;11.47;;;;;;;;;;5033260;28;20450;-76
2022/03/22 04:56:46;;;;;;;19.23;9.80;;;;;;;;;;5026463;28;20807;-76
2022/03/22 04:59:24;;;;;;;15.53;11.20;;;;;;;;;;5032788;28;20410;-76
2022/03/22 05:01:51;;;;;;;17.10;11.87;;;;;;;;;;5035010;28;20765;-76
2022/03/22 05:04:17;;;;;;;18.50;11.33;;;;;;;;;;5036934;28;20448;-76
2022/03/22 05:06:43;;;;;;;19.10;12.30;;;;;;;;;;5037037;28;20398;-76
2022/03/22 05:09:10;;;;;;;17.60;11.50;;;;;;;;;;5036816;28;20814;-76
2022/03/22 05:11:37;;;;;;;15.30;11.40;;;;;;;;;;5036796;28;20552;-76
2022/03/22 05:14:03;;;;;;;15.13;11.30;;;;;;;;;;5036740;28;20432;-76
2022/03/22 05:16:33;;;;;;;16.57;11.47;;;;;;;;;;5036016;28;20438;-76
2022/03/22 05:18:59;;;;;;;17.50;12.00;;;;;;;;;;5036900;28;20464;-75
2022/03/22 05:21:26;;;;;;;17.00;11.37;;;;;;;;;;5035343;28;20418;-75
2022/03/22 05:23:52;;;;;;;16.60;11.80;;;;;;;;;;5036801;28;20791;-75
2022/03/22 05:26:18;;;;;;;16.37;11.97;;;;;;;;;;5036669;28;20429;-75
2022/03/22 05:28:45;;;;;;;19.43;12.47;;;;;;;;;;5036326;28;20450;-75
2022/03/22 05:31:12;;;;;;;17.40;12.70;;;;;;;;;;5037407;28;20930;-76
2022/03/22 05:33:38;;;;;;;15.23;11.73;;;;;;;;;;5038573;28;20863;-76
2022/03/22 05:36:05;;;;;;;20.10;15.30;;;;;;;;;;5040064;28;20394;-75
2022/03/22 05:38:31;;;;;;;19.93;12.03;;;;;;;;;;5037222;28;20412;-76
2022/03/22 05:40:57;;;;;;;20.80;12.00;;;;;;;;;;5036422;28;20403;-76
2022/03/22 05:43:25;;;;;;;18.67;12.07;;;;;;;;;;5052145;23;20485;-76
2022/03/22 05:45:51;;;;;;;17.63;12.53;;;;;;;;;;5032923;28;20438;-77
2022/03/22 05:48:17;;;;;;;21.77;12.93;;;;;;;;;;5036024;28;20764;-77
2022/03/22 05:50:43;;;;;;;19.03;12.30;;;;;;;;;;5035902;28;20480;-77
2022/03/22 05:53:12;;;;;;;19.67;13.20;;;;;;;;;;5035864;28;20395;-77
2022/03/22 05:55:39;;;;;;;21.30;12.77;;;;;;;;;;5014753;28;20407;-76
2022/03/22 05:58:06;;;;;;;16.50;11.93;;;;;;;;;;5016125;28;20403;-77
2022/03/22 06:00:32;;;;;;;16.80;11.73;;;;;;;;;;5016206;28;20407;-76
2022/03/22 06:02:58;;;;;;;19.77;12.93;;;;;;;;;;5014668;28;20934;-76
2022/03/22 06:05:24;;;;;;;17.40;11.33;;;;;;;;;;5016364;28;20420;-76
2022/03/22 06:07:51;;;;;;;20.93;12.73;;;;;;;;;;5016658;28;20407;-76
2022/03/22 06:10:17;;;;;;;21.30;11.23;;;;;;;;;;5014328;28;20451;-76
2022/03/22 06:12:53;;;;;;;21.93;11.07;;;;;;;;;;5014727;28;20408;-77
2022/03/22 06:15:21;;;;;;;16.80;11.37;;;;;;;;;;5013956;28;20506;-77
2022/03/22 06:17:48;;;;;;;17.07;11.90;;;;;;;;;;5015614;28;20962;-76
2022/03/22 06:20:14;;;;;;;14.07;11.33;;;;;;;;;;5015552;28;20403;-76
2022/03/22 06:22:41;;;;;;;17.00;12.70;;;;;;;;;;5015934;28;20418;-76
2022/03/22 06:25:07;;;;;;;18.50;11.23;;;;;;;;;;5015352;28;20434;-76
2022/03/22 06:27:35;;;;;;;18.93;13.07;;;;;;;;;;5015444;28;20926;-77
2022/03/22 06:30:03;;;;;;;22.63;13.10;;;;;;;;;;5014071;28;20458;-77
2022/03/22 06:32:29;;;;;;;17.93;12.40;;;;;;;;;;5015418;28;20830;-77
2022/03/22 06:34:55;;;;;;;17.20;12.43;;;;;;;;;;5013977;28;20502;-77
2022/03/22 06:37:21;;;;;;;19.00;12.30;;;;;;;;;;5015050;28;20434;-77
2022/03/22 06:39:48;;;;;;;24.10;12.33;;;;;;;;;;5014586;28;20997;-77
2022/03/22 06:42:14;;;;;;;23.47;11.93;;;;;;;;;;5015069;28;20542;-77
2022/03/22 06:44:40;;;;;;;16.83;11.27;;;;;;;;;;5013604;28;20458;-77
2022/03/22 06:47:07;;;;;;;16.83;11.83;;;;;;;;;;5015391;28;20412;-77
2022/03/22 06:49:33;;;;;;;21.50;12.60;;;;;;;;;;5015425;28;20474;-77
2022/03/22 06:51:59;;;;;;;15.97;11.03;;;;;;;;;;5014009;28;20506;-77
2022/03/22 06:54:26;;;;;;;18.03;12.60;;;;;;;;;;5014925;28;20419;-77
2022/03/22 06:56:52;;;;;;;15.70;11.67;;;;;;;;;;5015393;28;20772;-76
2022/03/22 06:59:18;;;;;;;20.50;11.70;;;;;;;;;;5015184;28;20408;-76
2022/03/22 07:01:44;;;;;;;15.23;10.57;;;;;;;;;;5013633;28;20418;-77
2022/03/22 07:04:10;;;;;;;23.07;12.10;;;;;;;;;;5015701;28;20443;-77
2022/03/22 07:06:36;;;;;;;14.40;11.23;;;;;;;;;;5015847;28;20419;-77
2022/03/22 07:09:03;;;;;;;14.33;9.83;;;;;;;;;;5014998;28;20863;-76
2022/03/22 07:11:49;;;;;;;22.30;11.43;;;;;;;;;;5030420;28;20423;-77
2022/03/22 07:14:16;;;;;;;15.60;10.83;;;;;;;;;;5014965;28;20893;-77
2022/03/22 07:16:42;;;;;;;19.30;11.43;;;;;;;;;;5015152;28;20457;-77
2022/03/22 07:19:08;;;;;;;28.30;12.67;;;;;;;;;;5013545;28;20419;-77
2022/03/22 07:21:34;;;;;;;18.10;12.07;;;;;;;;;;5015065;28;20418;-77
2022/03/22 07:24:00;;;;;;;15.80;12.03;;;;;;;;;;5014471;28;20423;-77
2022/03/22 07:26:26;;;;;;;16.10;11.43;;;;;;;;;;5014948;28;20414;-77
2022/03/22 07:28:53;;;;;;;17.37;10.77;;;;;;;;;;5015182;28;20466;-77
2022/03/22 07:31:19;;;;;;;19.67;12.10;;;;;;;;;;5014971;28;20443;-76
2022/03/22 07:33:45;;;;;;;14.70;11.23;;;;;;;;;;5015013;28;20424;-77
2022/03/22 07:36:11;;;;;;;16.60;10.45;;;;;;;;;;5008801;28;20372;-77
2022/03/22 07:38:37;;;;;;;15.57;10.37;;;;;;;;;;5002647;28;20200;-76
2022/03/22 07:41:03;;;;;;;24.47;11.40;;;;;;;;;;5008241;28;21619;-77
2022/03/22 07:43:30;;;;;;;15.00;9.77;;;;;;;;;;5011985;28;20506;-77
2022/03/22 07:45:56;;;;;;;16.13;11.30;;;;;;;;;;5009191;28;20440;-78
2022/03/22 07:48:22;;;;;;;18.20;11.70;;;;;;;;;;5004918;28;20415;-76
2022/03/22 07:53:33;;;;;;;21.83;11.37;;;;;;;;;;4999692;28;20463;-77
2022/03/22 07:55:59;;;;;;;14.20;10.10;;;;;;;;;;5012236;28;20415;-78
2022/03/22 07:58:25;;;;;;;16.93;11.40;;;;;;;;;;5011879;28;20506;-76
2022/03/22 08:00:52;;;;;;;15.67;9.40;;;;;;;;;;5010775;28;20426;-77
2022/03/22 08:03:18;;;;;;;11.47;10.27;;;;;;;;;;5003532;28;20432;-77
2022/03/22 08:05:48;;;;;;;12.40;8.97;;;;;;;;;;5007561;28;20419;-76
2022/03/22 08:08:14;;;;;;;16.33;10.37;;;;;;;;;;5014151;28;20511;-76
2022/03/22 08:10:42;;;;;;;16.73;10.70;;;;;;;;;;5009361;28;20427;-76
2022/03/22 08:13:08;;;;;;;12.50;9.77;;;;;;;;;;5008187;28;20451;-76
2022/03/22 08:15:35;;;;;;;15.37;9.53;;;;;;;;;;4994209;28;20444;-75
2022/03/22 08:18:01;;;;;;;15.50;10.03;;;;;;;;;;5005539;28;20416;-75
2022/03/22 08:20:30;;;;;;;14.57;9.80;;;;;;;;;;5007117;28;20446;-76
2022/03/22 08:22:59;;;;;;;14.73;10.57;;;;;;;;;;5012229;28;20423;-75
2022/03/22 08:25:25;;;;;;;15.00;10.63;;;;;;;;;;5000900;28;20459;-76
2022/03/22 08:27:51;;;;;;;13.37;9.90;;;;;;;;;;5010477;28;20798;-75
2022/03/22 08:30:20;;;;;;;14.53;10.23;;;;;;;;;;5005858;28;21032;-76
2022/03/22 08:32:47;;;;;;;13.83;9.80;;;;;;;;;;5007119;28;20793;-76
2022/03/22 08:35:13;;;;;;;14.17;9.70;;;;;;;;;;5006991;28;20458;-75
2022/03/22 08:37:39;;;;;;;14.30;8.87;;;;;;;;;;5005627;28;20443;-76
2022/03/22 08:40:05;;;;;;;19.73;10.73;;;;;;;;;;5011019;28;20430;-75
2022/03/22 08:42:31;;;;;;;14.83;10.30;;;;;;;;;;5005684;28;20443;-76
2022/03/22 08:44:57;;;;;;;16.33;10.40;;;;;;;;;;5009345;28;20503;-76
2022/03/22 08:47:24;;;;;;;19.13;10.13;;;;;;;;;;5006137;28;20494;-76
2022/03/22 08:49:50;;;;;;;19.03;10.30;;;;;;;;;;5011803;28;20990;-76
2022/03/22 08:52:16;;;;;;;16.53;10.13;;;;;;;;;;5008132;28;20407;-74
2022/03/22 08:54:42;;;;;;;16.23;10.20;;;;;;;;;;5010850;28;20549;-76
2022/03/22 08:57:08;;;;;;;15.50;10.53;;;;;;;;;;5004636;28;20455;-77
2022/03/22 08:59:35;;;;;;;16.33;10.63;;;;;;;;;;5005723;28;20424;-76
2022/03/22 09:02:01;;;;;;;17.57;10.13;;;;;;;;;;5004569;28;20489;-76
2022/03/22 09:07:14;;;;;;;15.57;11.27;;;;;;;;;;5011051;28;20426;-76
2022/03/22 09:09:40;;;;;;;13.90;10.10;;;;;;;;;;5012482;28;20463;-76
2022/03/22 09:12:06;;;;;;;15.90;9.83;;;;;;;;;;5005138;28;20416;-77
2022/03/22 09:14:32;;;;;;;16.33;10.83;;;;;;;;;;5010943;28;20455;-76
2022/03/22 09:16:58;;;;;;;21.80;12.53;;;;;;;;;;5007385;28;20981;-75
2022/03/22 09:19:24;;;;;;;19.83;11.50;;;;;;;;;;5005345;28;20426;-76
2022/03/22 09:21:50;;;;;;;14.90;10.70;;;;;;;;;;5008998;28;20423;-76
2022/03/22 09:24:17;;;;;;;14.80;11.00;;;;;;;;;;5005603;28;20470;-77
2022/03/22 09:26:43;;;;;;;18.30;11.57;;;;;;;;;;5011383;28;20878;-77
2022/03/22 09:29:09;;;;;;;16.83;11.10;;;;;;;;;;5011574;28;20459;-77
2022/03/22 09:31:35;;;;;;;15.60;11.07;;;;;;;;;;5008954;28;20844;-76
2022/03/22 09:34:02;;;;;;;16.53;11.00;;;;;;;;;;5006228;28;20457;-76
2022/03/22 09:36:28;;;;;;;15.10;10.43;;;;;;;;;;5009792;28;20493;-77
2022/03/22 09:38:54;;;;;;;16.50;12.13;;;;;;;;;;4999773;28;20884;-76
2022/03/22 09:41:22;;;;;;;13.70;10.48;;;;;;;;;;5010526;28;20454;-77
2022/03/22 09:43:49;;;;;;;14.13;10.40;;;;;;;;;;5007561;28;20985;-77
2022/03/22 09:46:19;;;;;;;19.33;11.73;;;;;;;;;;5008995;28;20414;-76
2022/03/22 09:48:45;;;;;;;15.87;11.57;;;;;;;;;;5009999;28;20510;-77
2022/03/22 09:53:56;;;;;;;17.13;11.43;;;;;;;;;;5010266;28;20530;-76
2022/03/22 09:56:25;;;;;;;14.50;10.17;;;;;;;;;;5003795;28;20423;-76
2022/03/22 09:58:52;;;;;;;15.10;11.27;;;;;;;;;;5009019;28;20478;-76
2022/03/22 10:01:18;;;;;;;18.00;11.50;;;;;;;;;;5007000;28;20427;-76
2022/03/22 10:03:54;;;;;;;15.03;10.90;;;;;;;;;;5005896;28;20940;-77
2022/03/22 10:06:22;;;;;;;20.43;11.40;;;;;;;;;;5011843;28;20422;-77
2022/03/22 10:08:51;;;;;;;18.75;11.45;;;;;;;;;;5013294;28;20435;-76
2022/03/22 10:11:18;;;;;;;21.23;12.50;;;;;;;;;;5011311;28;20200;-77
2022/03/22 10:13:51;;;;;;;19.33;11.80;;;;;;;;;;5014932;28;20526;-76
2022/03/22 10:16:17;;;;;;;15.80;11.53;;;;;;;;;;5006793;28;20412;-76
2022/03/22 10:18:43;;;;;;;18.33;10.57;;;;;;;;;;5011555;28;20443;-76
2022/03/22 10:21:09;;;;;;;15.07;10.00;;;;;;;;;;5002923;28;20466;-76
2022/03/22 10:23:47;;;;;;;16.13;10.77;;;;;;;;;;5011945;28;20974;-76
2022/03/22 10:26:13;;;;;;;21.70;13.03;;;;;;;;;;5010189;28;20410;-77
2022/03/22 10:28:49;;;;;;;17.53;10.80;;;;;;;;;;5012805;28;20459;-77
2022/03/22 10:31:16;;;;;;;18.03;11.00;;;;;;;;;;5010505;28;20485;-76
2022/03/22 10:33:49;;;;;;;17.00;11.03;;;;;;;;;;5009851;28;20471;-77
2022/03/22 10:36:15;;;;;;;16.53;11.87;;;;;;;;;;5009804;28;20491;-76
2022/03/22 10:38:52;;;;;;;16.13;12.10;;;;;;;;;;5014496;28;20423;-75
2022/03/22 10:41:24;;;;;;;15.23;10.37;;;;;;;;;;5011230;28;20423;-77
2022/03/22 10:44:00;;;;;;;16.17;9.90;;;;;;;;;;5014322;28;20458;-76
2022/03/22 10:46:27;;;;;;;15.80;10.73;;;;;;;;;;5009865;28;20438;-77
2022/03/22 10:49:00;;;;;;;14.37;9.97;;;;;;;;;;5012272;28;20464;-77
2022/03/22 10:51:32;;;;;;;12.80;9.60;;;;;;;;;;5009755;28;20482;-77
2022/03/22 10:53:58;;;;;;;16.50;10.63;;;;;;;;;;5010446;28;20485;-78
2022/03/22 10:56:25;;;;;;;16.20;9.90;;;;;;;;;;5012452;28;20833;-77
2022/03/22 10:58:52;;;;;;;13.60;10.30;;;;;;;;;;5014729;28;20450;-77
2022/03/22 11:01:19;;;;;;;16.90;11.97;;;;;;;;;;5009979;28;20419;-77
2022/03/22 11:03:46;;;;;;;15.13;9.70;;;;;;;;;;5011318;28;20451;-77
2022/03/22 11:06:12;;;;;;;14.00;10.43;;;;;;;;;;5012904;28;20424;-77
2022/03/22 11:08:40;;;;;;;19.20;9.90;;;;;;;;;;5012336;28;20498;-77
2022/03/22 11:11:07;;;;;;;14.83;10.17;;;;;;;;;;5014510;28;20416;-77
2022/03/22 11:13:33;;;;;;;15.33;9.73;;;;;;;;;;5013743;28;20403;-76
2022/03/22 11:16:00;;;;;;;17.73;9.40;;;;;;;;;;5013276;28;20573;-76
2022/03/22 11:18:28;;;;;;;12.77;9.00;;;;;;;;;;5002391;28;20457;-76
2022/03/22 11:20:58;;;;;;;13.63;9.97;;;;;;;;;;5007469;28;20193;-77
2022/03/22 11:23:26;;;;;;;16.17;8.60;;;;;;;;;;5001248;28;20459;-77
2022/03/22 11:25:52;;;;;;;12.47;8.57;;;;;;;;;;5015248;28;20423;-76
2022/03/22 11:28:22;;;;;;;16.00;9.73;;;;;;;;;;5021278;28;20431;-77
2022/03/22 11:30:48;;;;;;;10.17;8.80;;;;;;;;;;5014030;28;20434;-78
2022/03/22 11:36:01;;;;;;;12.53;8.93;;;;;;;;;;5005223;28;20179;-78
2022/03/22 11:38:42;;;;;;;12.40;9.70;;;;;;;;;;5036346;28;20442;-78
2022/03/22 11:44:10;;;;;;;12.67;8.93;;;;;;;;;;5013587;28;20447;-78
2022/03/22 11:46:36;;;;;;;19.70;9.27;;;;;;;;;;5019017;28;20430;-78
2022/03/22 11:49:15;;;;;;;15.10;9.60;;;;;;;;;;5018330;28;20484;-75
2022/03/22 11:51:48;;;;;;;16.63;9.60;;;;;;;;;;5012320;28;20490;-77
2022/03/22 11:54:14;;;;;;;12.40;8.70;;;;;;;;;;5029236;28;20439;-77
2022/03/22 11:56:50;;;;;;;11.60;8.83;;;;;;;;;;5013787;28;20446;-77
2022/03/22 11:59:17;;;;;;;12.80;7.63;;;;;;;;;;5027168;28;20429;-77
2022/03/22 12:01:53;;;;;;;10.77;8.47;;;;;;;;;;5010010;28;20435;-79
2022/03/22 12:04:19;;;;;;;14.80;8.90;;;;;;;;;;5010595;28;20820;-77
2022/03/22 12:06:46;;;;;;;12.93;7.90;;;;;;;;;;5009980;28;20419;-76
2022/03/22 12:09:12;;;;;;;14.90;9.17;;;;;;;;;;5003449;28;21037;-77
2022/03/22 12:11:48;;;;;;;15.60;8.97;;;;;;;;;;5009740;28;20419;-76
2022/03/22 12:14:26;;;;;;;13.10;9.33;;;;;;;;;;4999420;28;20537;-76
2022/03/22 12:16:52;;;;;;;14.17;8.73;;;;;;;;;;5004025;28;20447;-76
2022/03/22 12:19:28;;;;;;;12.63;9.03;;;;;;;;;;5010751;28;20423;-77
2022/03/22 12:21:55;;;;;;;15.88;9.73;;;;;;;;;;5004815;28;20935;-77
2022/03/22 12:24:22;;;;;;;14.90;9.17;;;;;;;;;;5006197;28;20291;-77
2022/03/22 12:26:49;;;;;;;13.43;8.20;;;;;;;;;;5009225;28;20431;-77
2022/03/22 12:29:15;;;;;;;12.70;9.10;;;;;;;;;;5012417;28;20455;-77
2022/03/22 12:31:51;;;;;;;12.53;8.73;;;;;;;;;;5011910;28;20419;-77
2022/03/22 12:34:17;;;;;;;11.33;8.20;;;;;;;;;;5010292;28;20454;-77
2022/03/22 12:36:43;;;;;;;13.40;8.97;;;;;;;;;;5010272;28;20518;-78
2022/03/22 12:39:09;;;;;;;12.13;8.30;;;;;;;;;;5026101;28;20442;-78
2022/03/22 12:41:35;;;;;;;12.00;8.70;;;;;;;;;;5002091;28;20501;-79
2022/03/22 12:44:02;;;;;;;12.27;9.10;;;;;;;;;;5007310;28;20227;-77
2022/03/22 12:46:28;;;;;;;11.27;8.87;;;;;;;;;;5008007;28;20865;-78
2022/03/22 12:48:55;;;;;;;12.33;9.13;;;;;;;;;;5001301;28;20978;-77
2022/03/22 12:51:24;;;;;;;9.23;7.63;;;;;;;;;;5003224;28;20419;-77
2022/03/22 12:53:52;;;;;;;19.67;9.10;;;;;;;;;;5004671;28;20435;-77
2022/03/22 12:56:20;;;;;;;11.60;8.37;;;;;;;;;;5012290;28;20445;-78
2022/03/22 12:58:46;;;;;;;12.60;8.40;;;;;;;;;;5009587;28;20416;-77
2022/03/22 13:01:12;;;;;;;15.30;8.17;;;;;;;;;;5025874;28;20415;-77
2022/03/22 13:03:38;;;;;;;9.93;8.13;;;;;;;;;;5012809;28;20439;-76
2022/03/22 13:06:07;;;;;;;11.90;8.00;;;;;;;;;;5007760;28;21108;-76
2022/03/22 13:11:29;;;;;;;10.00;8.00;;;;;;;;;;5008251;28;20434;-76
2022/03/22 13:16:43;;;;;;;8.57;7.43;;;;;;;;;;5010090;28;20438;-76
2022/03/22 13:19:09;;;;;;;9.30;7.70;;;;;;;;;;5006628;28;20463;-76
2022/03/22 13:21:37;;;;;;;11.13;8.27;;;;;;;;;;5004708;28;20737;-77
2022/03/22 13:24:04;;;;;;;11.77;8.60;;;;;;;;;;5024123;28;20458;-76
2022/03/22 13:26:32;;;;;;;10.43;8.17;;;;;;;;;;5016403;28;20838;-76
2022/03/22 13:28:58;;;;;;;9.80;8.30;;;;;;;;;;5010377;28;20451;-77
2022/03/22 13:31:25;;;;;;;9.63;8.63;;;;;;;;;;5011593;28;20420;-77
2022/03/22 13:33:55;;;;;;;16.33;9.30;;;;;;;;;;5016340;28;20482;-78
2022/03/22 13:36:21;;;;;;;11.10;8.03;;;;;;;;;;5015057;28;20422;-77
2022/03/22 13:38:51;;;;;;;10.40;8.17;;;;;;;;;;5019010;28;20501;-77
2022/03/22 13:41:27;;;;;;;9.50;8.50;;;;;;;;;;5016899;28;20905;-77
2022/03/22 13:43:53;;;;;;;11.10;8.43;;;;;;;;;;5014548;28;20446;-77
2022/03/22 13:46:20;;;;;;;11.37;9.00;;;;;;;;;;5016559;28;20427;-79
2022/03/22 13:48:46;;;;;;;11.70;8.50;;;;;;;;;;5018492;28;20483;-79
2022/03/22 13:51:20;;;;;;;9.77;7.80;;;;;;;;;;5016106;28;20446;-78
2022/03/22 13:53:47;;;;;;;12.90;8.40;;;;;;;;;;5016386;28;20440;-78
2022/03/22 13:56:14;;;;;;;9.80;8.10;;;;;;;;;;5022142;28;20419;-78
2022/03/22 13:58:45;;;;;;;12.00;9.20;;;;;;;;;;5011443;28;20423;-78
2022/03/22 14:01:13;;;;;;;13.30;9.57;;;;;;;;;;5012879;28;20777;-78
2022/03/22 14:03:40;;;;;;;14.90;9.97;;;;;;;;;;5012649;28;20586;-78
2022/03/22 14:06:06;;;;;;;11.88;8.38;;;;;;;;;;5016993;28;20438;-78
2022/03/22 14:08:33;;;;;;;9.73;8.20;;;;;;;;;;5013375;28;20188;-77
2022/03/22 14:10:59;;;;;;;11.68;7.97;;;;;;;;;;5017056;28;20427;-78
2022/03/22 14:13:28;;;;;;;13.55;8.70;;;;;;;;;;5006861;28;20785;-78
2022/03/22 14:15:55;;;;;;;13.95;9.15;;;;;;;;;;5009677;28;20532;-77
2022/03/22 14:18:23;;;;;;;12.93;8.00;;;;;;;;;;5010737;28;20183;-76
2022/03/22 14:20:50;;;;;;;11.10;7.63;;;;;;;;;;5014342;28;20881;-75
2022/03/22 14:23:17;;;;;;;12.03;7.57;;;;;;;;;;5013621;28;20416;-75
2022/03/22 14:25:43;;;;;;;12.47;8.27;;;;;;;;;;5012989;28;20422;-75
2022/03/22 14:28:09;;;;;;;14.80;8.43;;;;;;;;;;5011226;28;20419;-75
2022/03/22 14:30:36;;;;;;;9.63;7.97;;;;;;;;;;5001843;28;20460;-74
2022/03/22 14:33:10;;;;;;;9.10;7.63;;;;;;;;;;5012187;28;20518;-76
2022/03/22 14:35:56;;;;;;;8.20;7.40;;;;;;;;;;5005566;28;20963;-75
2022/03/22 14:38:28;;;;;;;9.80;7.80;;;;;;;;;;5003757;28;20421;-76
2022/03/22 14:40:55;;;;;;;11.73;7.10;;;;;;;;;;5000532;28;20416;-76
2022/03/22 14:43:23;;;;;;;8.67;6.50;;;;;;;;;;5025299;28;20423;-77
2022/03/22 14:45:49;;;;;;;13.17;6.30;;;;;;;;;;5006343;28;20943;-77
2022/03/22 14:48:16;;;;;;;9.47;7.10;;;;;;;;;;5010183;28;20500;-76
2022/03/22 14:50:42;;;;;;;10.73;6.37;;;;;;;;;;4998961;28;20471;-76
2022/03/22 14:58:47;;;;;;;8.73;6.47;;;;;;;;;;5011218;28;20446;-76
2022/03/22 14:58:47;;;;;;;9.87;6.17;;;;;;;;;;5006813;28;20454;-77
2022/03/22 15:01:14;;;;;;;10.67;8.20;;;;;;;;;;5009686;28;20427;-77
2022/03/22 15:03:42;;;;;;;7.27;6.03;;;;;;;;;;5007540;28;20482;-77
2022/03/22 15:06:09;;;;;;;7.80;5.43;;;;;;;;;;5001280;28;20442;-76
2022/03/22 15:08:36;;;;;;;11.77;6.77;;;;;;;;;;5017764;28;20435;-76
2022/03/22 15:11:02;;;;;;;11.00;6.20;;;;;;;;;;5011802;28;20566;-76